NCAR-RAP Real-Time Weather Data

Output produced by METARs form (18 August 2018  01:02 UTC)
found at http://weather.rap.ucar.edu/surface/
 
RJSC 180000Z VRB02KT 9999 FEW040 SCT/// 20/14 Q1014
RJSC 172300Z VRB02KT 9999 FEW030 SCT050 18/14 Q1014
RJSC 172240Z VRB03KT 9999 FEW030 SCT/// 17/15 Q1014 RMK 1CU030 A2996
RJSC 171000Z 35003KT 240V040 9999 FEW040 18/13 Q1011
RJSC 170900Z 29004KT 240V350 9999 FEW040 20/14 Q1010
RJSC 170800Z 30009KT 270V340 9999 FEW040 SCT070 22/13 Q1010
RJSC 170700Z 30007KT 270V330 9999 FEW030 SCT045 23/13 Q1009
RJSC 170600Z 31009G19KT 260V360 9999 FEW025 BKN040 23/13 Q1009
RJSC 170500Z 33008KT 300V010 9999 FEW025 BKN040 21/15 Q1009
RJSC 170400Z 32011KT 260V010 9999 FEW025 SCT040 BKN050 21/14 Q1008
RJSC 170300Z 36018KT 340V050 9999 FEW010 SCT040 BKN050 20/14 Q1009
RJSC 170200Z 35012KT 9999 -SHRA FEW005 SCT030 BKN040 18/16 Q1009
RJSC 170100Z VRB03KT 9999 FEW010 SCT035 BKN045 20/14 Q1008
RJSC 170000Z 29004KT 220V010 9999 -SHRA FEW010 SCT025 BKN040 18/15 Q1008
RJSC 162300Z 32005KT 270V350 9999 -SHRA FEW010 SCT025 BKN040 19/15 Q1007
RJSC 162240Z 33009KT 280V360 9999 -SHRA FEW010 SCT025 BKN050 18/16 Q1007 RMK 1ST010 3CU025 5CU050 A2975
RJSC 161000Z VRB01KT 9999 -SHRA FEW010 SCT030 BKN050 23/21 Q1003
RJSC 160900Z 26003KT 230V310 9999 FEW010 SCT030 BKN045 23/22 Q1002
RJSC 160800Z 21006KT 9999 -SHRA FEW005 SCT020 BKN045 24/21 Q1002
RJSC 160700Z 21005KT 180V250 9999 FEW010 SCT035 BKN045 25/22 Q1002
RJSC 160600Z 23003KT 200V300 9999 FEW005 SCT040 BKN150 24/23 Q1001
RJSC 160500Z 24003KT 190V280 9999 -SHRA FEW003 SCT010 BKN060 24/23 Q1002
RJSC 160400Z 36004KT 310V080 9999 -SHRA FEW003 SCT010 BKN030 22/22 Q1003
RJSC 160338Z 31005KT 6000 SHRA FEW003 SCT008 BKN020 22/22 Q1004 RMK 1ST003 3ST008 7CU020 A2965
RJSC 160313Z 02003KT 340V070 7000 -SHRA FEW003 SCT008 BKN020 22/22 Q1003 RMK 1ST003 3ST008 7CU020 A2962
RJSC 160300Z VRB02KT 5000 SHRA BR FEW003 SCT008 BKN010 22/22 Q1003
RJSC 160235Z VRB03KT 4000 R01/0375VP2000U SHRA BR FEW003 SCT008 BKN010 22/22 Q1003 RMK 1ST003 3ST008 7ST010 A2963
RJSC 160229Z VRB07KT 2000 R01/0375VP2000D +SHRA BR FEW003 SCT008 BKN010 22/22 Q1003 RMK 1ST003 3ST008 7ST010 A2962 RI++
RJSC 160200Z 09004KT 040V110 9999 -SHRA FEW005 SCT020 BKN040 23/22 Q1002
RJSC 160100Z 27003KT 220V310 6000 -SHRA FEW005 SCT010 BKN030 23/22 Q1005
RJSC 160009Z 13004KT 080V160 5000 -SHRA BR FEW005 SCT010 BKN030 22/22 Q1005 RMK 1ST005 3ST010 7CU030 A2970
RJSC 160000Z 15004KT 090V180 4000 R01/1600VP2000N SHRA BR FEW005 SCT010 BKN020 22/22 Q1006
RJSC 152338Z VRB01KT 4000 R01/2000N +SHRA BR FEW005 SCT010 BKN030 22/21 Q1006 RMK 1ST005 3ST010 7CU030 A2971
RJSC 152332Z VRB03KT 5000 SHRA BR FEW005 SCT010 BKN030 22/22 Q1006 RMK 1ST005 3ST010 7CU030 A2971
RJSC 152312Z 17004KT 120V200 4000 R01/2000U SHRA BR FEW005 SCT010 BKN030 22/22 Q1006 RMK 1ST005 3ST010 7CU030 A2972
RJSC 152304Z 17004KT 130V210 3000 R01/1400VP2000D +SHRA BR FEW005 SCT010 BKN030 22/22 Q1006 RMK 1ST005 3ST010 7CU030 A2972
RJSC 152300Z 17003KT 130V210 5000 SHRA BR FEW005 SCT015 BKN030 22/22 Q1006
RJSC 152240Z 21003KT 180V240 8000 SHRA FEW005 SCT020 BKN040 22/22 Q1006 RMK 1ST005 3CU020 7CU040 A2972